createdAt,value
2023-04-09T00:01:06.914Z,9.00
2023-04-09T00:03:35.132Z,8.90
2023-04-09T00:06:02.763Z,8.80
2023-04-09T00:08:29.766Z,8.90
2023-04-09T00:10:59.303Z,8.80
2023-04-09T00:13:38.481Z,8.80
2023-04-09T00:16:07.744Z,8.50
2023-04-09T00:18:34.829Z,8.80
2023-04-09T00:21:01.774Z,8.80
2023-04-09T00:23:28.700Z,8.80
2023-04-09T00:25:55.640Z,8.80
2023-04-09T00:28:22.566Z,8.70
2023-04-09T00:30:49.683Z,8.80
2023-04-09T00:35:43.981Z,8.80
2023-04-09T00:38:11.016Z,8.70
2023-04-09T00:40:37.957Z,8.70
2023-04-09T00:43:04.915Z,8.20
2023-04-09T00:45:32.025Z,8.60
2023-04-09T00:47:59.345Z,8.70
2023-04-09T00:50:26.591Z,8.70
2023-04-09T00:52:53.718Z,8.70
2023-04-09T00:55:21.664Z,8.80
2023-04-09T00:57:48.670Z,9.00
2023-04-09T01:00:16.695Z,8.70
2023-04-09T01:02:44.256Z,8.70
2023-04-09T01:05:12.829Z,8.70
2023-04-09T01:08:04.714Z,8.80
2023-04-09T01:11:03.445Z,8.80
2023-04-09T01:13:49.879Z,8.70
2023-04-09T01:16:19.301Z,9.20
2023-04-09T01:19:10.447Z,8.60
2023-04-09T01:21:39.191Z,8.60
2023-04-09T01:24:42.701Z,8.60
2023-04-09T01:27:13.302Z,8.80
2023-04-09T01:29:55.804Z,8.60
2023-04-09T01:32:24.467Z,8.60
2023-04-09T01:34:52.692Z,8.50
2023-04-09T01:37:20.997Z,8.60
2023-04-09T01:39:48.140Z,8.60
2023-04-09T01:42:16.804Z,8.50
2023-04-09T01:44:46.396Z,8.70
2023-04-09T01:47:13.864Z,8.60
2023-04-09T01:49:42.883Z,8.50
2023-04-09T01:52:10.661Z,9.20
2023-04-09T01:54:37.866Z,8.70
2023-04-09T01:57:04.829Z,7.40
2023-04-09T01:59:31.919Z,8.00
2023-04-09T02:02:03.552Z,8.60
2023-04-09T02:04:40.764Z,8.80
2023-04-09T02:07:37.094Z,8.60
2023-04-09T02:10:07.090Z,8.50
2023-04-09T02:12:39.104Z,8.50
2023-04-09T02:15:07.329Z,8.50
2023-04-09T02:17:34.443Z,8.50
2023-04-09T02:20:01.513Z,8.30
2023-04-09T02:22:28.760Z,8.40
2023-04-09T02:24:55.759Z,8.50
2023-04-09T02:27:22.660Z,8.50
2023-04-09T02:29:49.620Z,8.50
2023-04-09T02:32:16.612Z,8.30
2023-04-09T02:34:43.674Z,8.40
2023-04-09T02:37:10.742Z,8.50
2023-04-09T02:39:37.692Z,8.30
2023-04-09T02:42:04.712Z,7.90
2023-04-09T02:44:31.685Z,10.40
2023-04-09T02:46:58.830Z,8.30
2023-04-09T02:49:25.836Z,8.30
2023-04-09T02:51:52.832Z,8.50
2023-04-09T02:54:19.784Z,8.40
2023-04-09T02:56:46.873Z,8.50
2023-04-09T02:59:13.878Z,9.20
2023-04-09T03:01:40.974Z,8.40
2023-04-09T03:04:08.179Z,8.30
2023-04-09T03:06:35.483Z,8.30
2023-04-09T03:09:02.409Z,8.90
2023-04-09T03:11:29.460Z,8.40
2023-04-09T03:13:56.421Z,8.30
2023-04-09T03:16:26.166Z,9.60
2023-04-09T03:18:53.639Z,8.50
2023-04-09T03:21:21.051Z,8.30
2023-04-09T03:23:49.983Z,8.30
2023-04-09T03:26:16.970Z,8.10
2023-04-09T03:28:48.138Z,8.30
2023-04-09T03:31:15.295Z,8.00
2023-04-09T03:33:43.767Z,8.10
2023-04-09T03:36:11.730Z,8.30
2023-04-09T03:38:55.570Z,8.20
2023-04-09T03:41:28.121Z,8.10
2023-04-09T03:43:56.921Z,8.30
2023-04-09T03:46:27.709Z,8.20
2023-04-09T03:48:56.655Z,7.80
2023-04-09T03:51:29.985Z,8.30
2023-04-09T03:53:59.212Z,8.20
2023-04-09T03:56:26.288Z,8.20
2023-04-09T03:58:53.387Z,8.10
2023-04-09T04:01:24.952Z,8.20
2023-04-09T04:03:56.262Z,8.10
2023-04-09T04:06:25.690Z,8.10
2023-04-09T04:09:11.274Z,8.00
2023-04-09T04:11:46.566Z,8.10
2023-04-09T04:14:14.033Z,8.20
2023-04-09T04:16:44.100Z,8.20
2023-04-09T04:19:13.282Z,8.50
2023-04-09T04:21:45.522Z,8.10
2023-04-09T04:24:12.513Z,8.00
2023-04-09T04:26:41.104Z,8.00
2023-04-09T04:29:09.085Z,8.10
2023-04-09T04:31:59.326Z,8.00
2023-04-09T04:34:32.149Z,8.20
2023-04-09T04:37:09.182Z,8.00
2023-04-09T04:39:36.168Z,8.00
2023-04-09T04:42:08.515Z,7.90
2023-04-09T04:44:35.692Z,7.90
2023-04-09T04:47:15.478Z,8.00
2023-04-09T04:49:42.574Z,8.30
2023-04-09T04:52:10.426Z,8.10
2023-04-09T04:54:40.619Z,10.00
2023-04-09T04:57:07.830Z,8.00
2023-04-09T04:59:40.376Z,8.10
2023-04-09T05:02:10.115Z,8.10
2023-04-09T05:04:47.960Z,8.00
2023-04-09T05:07:17.695Z,8.10
2023-04-09T05:09:51.698Z,8.10
2023-04-09T05:12:19.328Z,8.10
2023-04-09T05:14:50.889Z,8.10
2023-04-09T05:17:17.859Z,8.20
2023-04-09T05:19:52.719Z,8.10
2023-04-09T05:22:24.200Z,8.10
2023-04-09T05:24:51.809Z,8.00
2023-04-09T05:27:22.047Z,8.00
2023-04-09T05:29:53.924Z,8.10
2023-04-09T05:32:21.106Z,8.00
2023-04-09T05:37:15.942Z,8.00
2023-04-09T05:39:47.335Z,8.20
2023-04-09T05:42:14.459Z,8.10
2023-04-09T05:44:51.733Z,8.10
2023-04-09T05:47:20.641Z,8.20
2023-04-09T05:49:58.233Z,8.00
2023-04-09T05:52:25.208Z,7.70
2023-04-09T05:54:52.857Z,8.00
2023-04-09T05:57:25.751Z,7.90
2023-04-09T05:59:58.620Z,7.70
2023-04-09T06:02:26.626Z,8.00
2023-04-09T06:04:54.601Z,7.90
2023-04-09T06:07:22.436Z,8.30
2023-04-09T06:09:49.466Z,8.10
2023-04-09T06:12:16.496Z,7.80
2023-04-09T06:14:43.528Z,8.10
2023-04-09T06:22:05.406Z,8.00
2023-04-09T06:24:33.487Z,8.00
2023-04-09T06:29:28.319Z,8.10
2023-04-09T06:31:55.389Z,8.10
2023-04-09T06:34:22.535Z,8.10
2023-04-09T06:36:49.527Z,8.10
2023-04-09T06:39:16.469Z,8.10
2023-04-09T06:41:43.398Z,8.10
2023-04-09T06:44:24.324Z,8.00
2023-04-09T06:46:51.692Z,8.20
2023-04-09T06:51:46.700Z,8.90
2023-04-09T06:54:14.008Z,8.20
2023-04-09T06:59:08.544Z,8.20
2023-04-09T07:04:05.806Z,8.30
2023-04-09T07:06:32.966Z,8.80
2023-04-09T07:09:00.112Z,8.10
2023-04-09T07:11:27.491Z,8.20
2023-04-09T07:13:56.700Z,8.30
2023-04-09T07:16:23.903Z,7.50
2023-04-09T07:21:19.387Z,8.20
2023-04-09T07:23:46.793Z,8.30
2023-04-09T07:28:42.266Z,8.30
2023-04-09T07:31:09.487Z,8.40
2023-04-09T07:33:36.566Z,8.30
2023-04-09T07:36:03.806Z,8.40
2023-04-09T07:38:30.931Z,8.30
2023-04-09T07:40:58.474Z,8.30
2023-04-09T07:43:25.627Z,8.40
2023-04-09T07:48:20.782Z,8.40
2023-04-09T07:50:48.284Z,8.30
2023-04-09T07:53:15.559Z,8.30
2023-04-09T07:58:10.219Z,8.40
2023-04-09T08:00:37.279Z,8.60
2023-04-09T08:03:04.364Z,8.40
2023-04-09T08:05:31.718Z,8.40
2023-04-09T08:07:58.714Z,8.40
2023-04-09T08:10:25.932Z,7.90
2023-04-09T08:12:53.124Z,8.50
2023-04-09T08:17:47.795Z,8.40
2023-04-09T08:20:16.891Z,8.10
2023-04-09T08:22:44.013Z,8.70
2023-04-09T08:25:10.965Z,8.70
2023-04-09T08:27:39.849Z,8.50
2023-04-09T08:32:35.648Z,10.00
2023-04-09T08:35:02.874Z,8.80
2023-04-09T08:37:30.012Z,8.80
2023-04-09T08:39:57.135Z,9.00
2023-04-09T08:42:26.082Z,8.40
2023-04-09T08:44:53.217Z,9.00
2023-04-09T08:47:21.231Z,9.30
2023-04-09T08:49:50.275Z,8.90
2023-04-09T08:52:21.867Z,9.00
2023-04-09T08:57:17.978Z,9.30
2023-04-09T08:59:44.954Z,9.10
2023-04-09T09:04:48.206Z,9.00
2023-04-09T09:10:05.557Z,9.60
2023-04-09T09:12:43.060Z,9.20
2023-04-09T09:15:29.816Z,9.30
2023-04-09T09:17:59.807Z,9.20
2023-04-09T09:20:27.673Z,8.40
2023-04-09T09:22:56.948Z,9.30
2023-04-09T09:25:26.042Z,9.20
2023-04-09T09:30:26.168Z,9.50
2023-04-09T09:33:09.288Z,9.60
2023-04-09T09:35:49.673Z,9.40
2023-04-09T09:38:17.209Z,10.00
2023-04-09T09:43:14.694Z,9.60
2023-04-09T09:45:44.127Z,9.70
2023-04-09T09:48:12.915Z,9.60
2023-04-09T09:50:41.942Z,9.30
2023-04-09T09:55:49.149Z,9.90
2023-04-09T10:00:57.478Z,9.70
2023-04-09T10:03:34.593Z,9.60
2023-04-09T10:06:03.509Z,9.90
2023-04-09T10:08:34.185Z,9.70
2023-04-09T10:11:02.316Z,9.90
2023-04-09T10:13:39.875Z,9.80
2023-04-09T10:16:09.095Z,9.70
2023-04-09T10:18:37.036Z,9.80
2023-04-09T10:21:33.485Z,9.70
2023-04-09T10:24:01.547Z,10.10
2023-04-09T10:26:30.767Z,10.40
2023-04-09T10:29:15.966Z,10.10
2023-04-09T10:32:04.314Z,9.80
2023-04-09T10:34:38.046Z,10.60
2023-04-09T10:37:15.032Z,10.10
2023-04-09T10:39:47.601Z,10.40
2023-04-09T10:47:43.606Z,10.40
2023-04-09T10:55:33.342Z,10.60
2023-04-09T10:58:00.561Z,10.80
2023-04-09T11:00:27.591Z,10.80
2023-04-09T11:03:04.736Z,11.00
2023-04-09T11:05:35.551Z,10.50
2023-04-09T11:08:05.346Z,10.20
2023-04-09T11:10:33.700Z,10.30
2023-04-09T11:13:01.762Z,10.60
2023-04-09T11:15:29.256Z,10.30
2023-04-09T11:17:57.745Z,10.40
2023-04-09T11:22:55.480Z,11.00
2023-04-09T11:25:25.521Z,10.80
2023-04-09T11:27:53.327Z,11.20
2023-04-09T11:30:20.790Z,12.40
2023-04-09T11:32:49.602Z,12.10
2023-04-09T11:37:47.215Z,13.90
2023-04-09T11:40:22.071Z,12.40
2023-04-09T11:42:52.413Z,14.00
2023-04-09T11:45:23.315Z,13.00
2023-04-09T11:47:51.244Z,13.10
2023-04-09T11:50:20.154Z,13.90
2023-04-09T11:55:29.487Z,12.60
2023-04-09T11:58:01.370Z,12.70
2023-04-09T12:00:29.463Z,12.10
2023-04-09T12:03:05.370Z,12.60
2023-04-09T12:05:34.631Z,12.90
2023-04-09T12:08:08.499Z,12.80
2023-04-09T12:10:38.114Z,13.40
2023-04-09T12:13:10.514Z,13.30
2023-04-09T12:15:46.399Z,13.80
2023-04-09T12:18:14.650Z,14.30
2023-04-09T12:20:44.228Z,14.20
2023-04-09T12:23:12.809Z,14.50
2023-04-09T12:25:43.089Z,14.50
2023-04-09T12:28:15.199Z,14.40
2023-04-09T12:30:43.176Z,12.80
2023-04-09T12:33:11.383Z,13.10
2023-04-09T12:35:39.334Z,13.00
2023-04-09T12:38:06.870Z,13.00
2023-04-09T12:43:05.665Z,12.80
2023-04-09T12:45:33.270Z,13.10
2023-04-09T12:48:00.702Z,13.20
2023-04-09T12:50:28.389Z,13.10
2023-04-09T12:52:55.495Z,12.90
2023-04-09T12:55:22.558Z,13.10
2023-04-09T12:57:50.840Z,14.10
2023-04-09T13:00:18.128Z,13.20
2023-04-09T13:02:45.771Z,13.00
2023-04-09T13:05:12.996Z,12.90
2023-04-09T13:07:42.347Z,13.00
2023-04-09T13:10:10.716Z,14.10
2023-04-09T13:12:37.972Z,12.70
2023-04-09T13:15:05.827Z,13.20
2023-04-09T13:17:33.021Z,13.40
2023-04-09T13:20:00.163Z,13.80
2023-04-09T13:22:27.290Z,13.20
2023-04-09T13:24:54.533Z,13.80
2023-04-09T13:27:22.119Z,14.40
2023-04-09T13:29:49.411Z,13.60
2023-04-09T13:32:18.386Z,13.40
2023-04-09T13:34:46.039Z,12.60
2023-04-09T13:37:13.474Z,12.60
2023-04-09T13:39:40.733Z,13.00
2023-04-09T13:42:16.868Z,13.70
2023-04-09T13:47:13.839Z,12.90
2023-04-09T13:49:42.025Z,13.10
2023-04-09T13:52:09.962Z,13.10
2023-04-09T13:54:37.472Z,13.00
2023-04-09T13:57:07.410Z,13.10
2023-04-09T13:59:38.213Z,13.00
2023-04-09T14:02:05.503Z,12.90
2023-04-09T14:04:32.742Z,12.70
2023-04-09T14:06:59.820Z,13.10
2023-04-09T14:09:26.839Z,13.10
2023-04-09T14:11:55.153Z,13.30
2023-04-09T14:14:22.206Z,13.60
2023-04-09T14:16:50.385Z,12.60
2023-04-09T14:19:17.603Z,12.80
2023-04-09T14:21:44.710Z,13.00
2023-04-09T14:24:12.103Z,13.00
2023-04-09T14:26:39.186Z,13.20
2023-04-09T14:29:06.528Z,13.40
2023-04-09T14:31:33.824Z,13.30
2023-04-09T14:34:00.943Z,13.60
2023-04-09T14:36:28.115Z,14.80
2023-04-09T14:38:57.806Z,13.80
2023-04-09T14:41:25.948Z,13.60
2023-04-09T14:43:53.038Z,14.60
2023-04-09T14:46:20.339Z,13.80
2023-04-09T14:48:47.430Z,14.40
2023-04-09T14:51:14.572Z,13.40
2023-04-09T14:56:09.644Z,14.10
2023-04-09T14:58:36.690Z,14.00
2023-04-09T15:01:04.636Z,13.70
2023-04-09T15:03:32.063Z,13.60
2023-04-09T15:05:59.657Z,13.30
2023-04-09T15:08:26.658Z,13.30
2023-04-09T15:10:53.863Z,13.10
2023-04-09T15:13:20.946Z,13.30
2023-04-09T15:15:48.101Z,13.40
2023-04-09T15:18:15.411Z,13.50
2023-04-09T15:23:11.303Z,13.90
2023-04-09T15:25:39.232Z,13.50
2023-04-09T15:28:06.914Z,13.50
2023-04-09T15:30:35.536Z,13.60
2023-04-09T15:33:02.674Z,13.40
2023-04-09T15:35:29.735Z,13.70
2023-04-09T15:37:57.353Z,13.40
2023-04-09T15:40:24.639Z,13.60
2023-04-09T15:42:51.678Z,13.30
2023-04-09T15:45:18.902Z,13.50
2023-04-09T15:47:46.468Z,13.40
2023-04-09T15:50:14.534Z,13.50
2023-04-09T15:52:41.503Z,10.50
2023-04-09T15:55:09.374Z,13.40
2023-04-09T15:57:36.713Z,13.40
2023-04-09T16:00:04.187Z,13.20
2023-04-09T16:02:32.173Z,13.30
2023-04-09T16:07:26.743Z,13.40
2023-04-09T16:09:53.771Z,11.50
2023-04-09T16:12:20.922Z,13.70
2023-04-09T16:17:15.498Z,13.40
2023-04-09T16:19:43.243Z,13.40
2023-04-09T16:22:11.358Z,13.40
2023-04-09T16:24:38.505Z,13.50
2023-04-09T16:27:05.562Z,14.10
2023-04-09T16:32:00.200Z,13.40
2023-04-09T16:34:29.174Z,13.30
2023-04-09T16:36:56.301Z,13.30
2023-04-09T16:41:51.677Z,13.10
2023-04-09T16:46:46.020Z,13.10
2023-04-09T16:49:13.088Z,13.20
2023-04-09T16:51:40.204Z,13.10
2023-04-09T16:54:07.313Z,13.00
2023-04-09T16:56:34.394Z,13.10
2023-04-09T16:59:01.431Z,13.10
2023-04-09T17:01:29.057Z,13.10
2023-04-09T17:06:23.839Z,12.80
2023-04-09T17:08:51.031Z,13.00
2023-04-09T17:11:18.512Z,13.00
2023-04-09T17:13:45.659Z,12.80
2023-04-09T17:16:14.283Z,12.70
2023-04-09T17:18:41.459Z,14.50
2023-04-09T17:21:08.502Z,13.40
2023-04-09T17:23:36.788Z,12.90
2023-04-09T17:28:31.382Z,13.80
2023-04-09T17:30:58.385Z,12.70
2023-04-09T17:33:26.054Z,12.70
2023-04-09T17:35:53.274Z,12.80
2023-04-09T17:38:25.135Z,12.50
2023-04-09T17:43:21.192Z,11.90
2023-04-09T17:45:49.335Z,12.70
2023-04-09T17:48:16.608Z,13.10
2023-04-09T17:50:43.837Z,12.60
2023-04-09T17:53:11.606Z,12.60
2023-04-09T17:55:38.845Z,12.20
2023-04-09T17:58:06.065Z,13.10
2023-04-09T18:03:02.119Z,12.50
2023-04-09T18:05:29.699Z,12.50
2023-04-09T18:07:57.001Z,12.40
2023-04-09T18:10:24.128Z,12.60
2023-04-09T18:12:51.893Z,12.40
2023-04-09T18:15:19.231Z,12.50
2023-04-09T18:17:46.441Z,12.30
2023-04-09T18:20:15.479Z,12.50
2023-04-09T18:22:43.574Z,12.40
2023-04-09T18:25:10.909Z,12.90
2023-04-09T18:27:38.010Z,12.90
2023-04-09T18:30:05.741Z,12.30
2023-04-09T18:32:32.802Z,11.60
2023-04-09T18:34:59.986Z,11.70
2023-04-09T18:37:27.916Z,12.20
2023-04-09T18:39:55.164Z,12.10
2023-04-09T18:42:22.164Z,11.90
2023-04-09T18:44:49.242Z,12.00
2023-04-09T18:49:43.658Z,12.10
2023-04-09T18:52:10.834Z,12.00
2023-04-09T18:54:38.933Z,12.70
2023-04-09T18:57:06.406Z,12.00
2023-04-09T18:59:35.094Z,11.90
2023-04-09T19:02:06.256Z,11.80
2023-04-09T19:04:40.125Z,11.90
2023-04-09T19:07:07.726Z,11.80
2023-04-09T19:09:35.604Z,11.40
2023-04-09T19:12:02.747Z,11.80
2023-04-09T19:14:29.938Z,11.70
2023-04-09T19:19:25.848Z,11.80
2023-04-09T19:21:52.836Z,13.00
2023-04-09T19:24:19.858Z,12.00
2023-04-09T19:26:47.260Z,11.40
2023-04-09T19:29:14.250Z,11.60
2023-04-09T19:31:41.593Z,11.50
2023-04-09T19:34:10.801Z,11.60
2023-04-09T19:36:38.474Z,11.10
2023-04-09T19:39:06.021Z,11.60
2023-04-09T19:41:33.179Z,12.10
2023-04-09T19:44:01.465Z,11.30
2023-04-09T19:46:28.744Z,11.60
2023-04-09T19:48:56.707Z,11.50
2023-04-09T19:51:23.714Z,11.50
2023-04-09T19:53:50.760Z,11.50
2023-04-09T19:58:46.024Z,10.70
2023-04-09T20:01:13.222Z,12.20
2023-04-09T20:03:40.775Z,11.50
2023-04-09T20:06:10.242Z,11.40
2023-04-09T20:11:05.625Z,11.30
2023-04-09T20:13:33.646Z,11.40
2023-04-09T20:16:00.957Z,11.30
2023-04-09T20:18:28.716Z,11.90
2023-04-09T20:20:56.097Z,11.30
2023-04-09T20:25:56.969Z,11.70
2023-04-09T20:28:24.126Z,10.90
2023-04-09T20:30:51.176Z,12.20
2023-04-09T20:35:46.083Z,11.10
2023-04-09T20:38:13.232Z,11.00
2023-04-09T20:40:40.490Z,11.40
2023-04-09T20:43:07.506Z,10.90
2023-04-09T20:45:34.554Z,11.00
2023-04-09T20:48:02.243Z,10.90
2023-04-09T20:50:31.046Z,10.90
2023-04-09T20:52:59.027Z,11.70
2023-04-09T20:55:26.446Z,10.90
2023-04-09T20:57:56.658Z,10.80
2023-04-09T21:02:51.626Z,10.70
2023-04-09T21:05:24.029Z,11.40
2023-04-09T21:07:52.697Z,10.70
2023-04-09T21:10:20.270Z,10.80
2023-04-09T21:12:47.390Z,10.80
2023-04-09T21:15:14.489Z,10.50
2023-04-09T21:17:41.690Z,10.70
2023-04-09T21:20:11.699Z,10.70
2023-04-09T21:22:38.767Z,10.70
2023-04-09T21:27:33.659Z,10.00
2023-04-09T21:30:00.764Z,10.70
2023-04-09T21:32:28.072Z,10.50
2023-04-09T21:34:55.590Z,10.50
2023-04-09T21:37:22.870Z,10.70
2023-04-09T21:39:50.052Z,10.70
2023-04-09T21:42:17.090Z,10.00
2023-04-09T21:44:44.151Z,9.70
2023-04-09T21:47:12.149Z,9.90
2023-04-09T21:49:40.587Z,10.40
2023-04-09T21:52:14.380Z,10.40
2023-04-09T21:54:43.164Z,10.40
2023-04-09T21:57:11.141Z,10.40
2023-04-09T21:59:41.421Z,10.30
2023-04-09T22:02:09.669Z,10.30
2023-04-09T22:04:42.496Z,10.20
2023-04-09T22:07:11.282Z,10.20
2023-04-09T22:09:38.353Z,10.20
2023-04-09T22:14:33.001Z,10.30
2023-04-09T22:17:01.813Z,10.30
2023-04-09T22:19:31.532Z,10.10
2023-04-09T22:21:58.891Z,10.30
2023-04-09T22:24:30.301Z,10.10
2023-04-09T22:27:01.692Z,10.20
2023-04-09T22:29:32.051Z,10.80
2023-04-09T22:31:59.039Z,10.60
2023-04-09T22:34:26.353Z,10.10
2023-04-09T22:36:53.350Z,10.10
2023-04-09T22:39:21.603Z,9.60
2023-04-09T22:41:48.760Z,10.00
2023-04-09T22:44:15.780Z,10.00
2023-04-09T22:49:11.634Z,10.00
2023-04-09T22:51:41.369Z,10.10
2023-04-09T22:54:09.562Z,9.90
2023-04-09T22:56:36.842Z,9.80
2023-04-09T22:59:04.020Z,9.80
2023-04-09T23:01:32.237Z,9.90
2023-04-09T23:03:59.223Z,9.70
2023-04-09T23:08:54.027Z,10.50
2023-04-09T23:11:23.406Z,9.80
2023-04-09T23:13:50.512Z,9.60
2023-04-09T23:18:45.559Z,9.70
2023-04-09T23:21:12.571Z,9.50
2023-04-09T23:23:39.693Z,9.80
2023-04-09T23:26:07.230Z,9.70
2023-04-09T23:28:36.748Z,9.50
2023-04-09T23:31:03.891Z,9.60
2023-04-09T23:33:30.996Z,9.50
2023-04-09T23:36:01.111Z,9.60
2023-04-09T23:38:28.326Z,9.30
2023-04-09T23:43:22.976Z,9.60
2023-04-09T23:45:50.641Z,9.50
2023-04-09T23:50:45.135Z,9.40
2023-04-09T23:53:12.112Z,9.40
2023-04-09T23:55:41.243Z,9.10
2023-04-09T23:58:09.577Z,9.30
